Time;durP1;ratioP1;P1;durP2;ratioP2;P2;SDS_P1;SDS_P2;PMS_P1;PMS_P2;Temp;Humidity;BMP_temperature;BMP_pressure;BME280_temperature;BME280_humidity;BME280_pressure;Samples;Min_cycle;Max_cycle;Signal;HPM_P1;HPM_P2
2020/12/01 00:01:35;;;;;;;14.63;6.40;;;;;;;22.75;49.26;100154.31;5046045;28;20028;-64
2020/12/01 00:04:00;;;;;;;12.00;7.00;;;;;;;22.77;49.39;100156.91;5045645;28;20021;-64
2020/12/01 00:06:30;;;;;;;15.40;6.88;;;;;;;22.78;49.67;100153.34;5034675;28;20491;-64
2020/12/01 00:08:55;;;;;;;12.63;6.80;;;;;;;22.77;49.36;100147.16;5033487;28;20033;-64
2020/12/01 00:11:21;;;;;;;14.35;7.05;;;;;;;22.78;49.24;100148.03;5034604;28;20032;-63
2020/12/01 00:13:46;;;;;;;13.15;7.05;;;;;;;22.79;49.41;100144.44;5040159;28;20021;-63
2020/12/01 00:16:12;;;;;;;14.23;6.78;;;;;;;22.79;49.40;100142.63;5033265;28;20029;-63
2020/12/01 00:18:38;;;;;;;13.90;6.20;;;;;;;22.79;49.53;100139.97;5046725;28;20017;-63
2020/12/01 00:21:04;;;;;;;10.95;6.72;;;;;;;22.80;49.45;100143.53;5054362;28;20459;-64
2020/12/01 00:23:29;;;;;;;10.65;6.28;;;;;;;22.80;49.55;100140.88;5034089;28;20079;-64
2020/12/01 00:25:54;;;;;;;15.18;6.80;;;;;;;22.82;49.38;100144.31;5035751;28;20022;-64
2020/12/01 00:28:20;;;;;;;11.60;6.35;;;;;;;22.81;49.39;100137.25;5038105;28;20029;-64
2020/12/01 00:30:45;;;;;;;15.07;7.28;;;;;;;22.81;49.39;100142.56;5034579;28;20032;-63
2020/12/01 00:33:11;;;;;;;12.43;6.70;;;;;;;22.81;49.34;100132.81;5034803;28;20025;-63
2020/12/01 00:35:38;;;;;;;12.52;6.47;;;;;;;22.82;49.60;100141.66;5034200;28;20029;-63
2020/12/01 00:38:04;;;;;;;11.98;6.72;;;;;;;22.81;49.57;100140.78;5032045;28;20029;-63
2020/12/01 00:40:29;;;;;;;13.27;6.47;;;;;;;22.83;49.54;100140.72;5051346;28;20060;-63
2020/12/01 00:42:55;;;;;;;11.13;6.60;;;;;;;22.83;49.56;100134.53;5053420;28;20025;-64
2020/12/01 00:45:20;;;;;;;11.27;6.65;;;;;;;22.83;49.44;100135.41;5053807;28;20136;-63
2020/12/01 00:47:46;;;;;;;13.50;6.57;;;;;;;22.84;49.41;100138.91;5052480;28;20032;-64
2020/12/01 00:50:14;;;;;;;12.40;6.85;;;;;;;22.84;49.59;100137.16;5038817;28;20518;-65
2020/12/01 00:52:39;;;;;;;14.43;7.38;;;;;;;22.84;49.37;100133.59;5032683;28;20030;-64
2020/12/01 00:55:05;;;;;;;13.40;6.93;;;;;;;22.83;49.54;100131.88;5039725;28;20029;-63
2020/12/01 00:57:31;;;;;;;12.00;6.47;;;;;;;22.83;49.54;100127.44;5046737;28;20026;-63
2020/12/01 00:59:56;;;;;;;13.75;6.80;;;;;;;22.83;49.53;100130.09;5032912;28;20032;-63
2020/12/01 01:02:21;;;;;;;21.73;7.35;;;;;;;22.84;49.49;100125.63;5033953;28;20539;-68
2020/12/01 01:04:47;;;;;;;14.05;6.47;;;;;;;22.83;49.35;100124.78;5033907;28;20029;-67
2020/12/01 01:07:12;;;;;;;15.23;7.10;;;;;;;22.84;49.40;100128.28;5037897;28;20024;-62
2020/12/01 01:09:38;;;;;;;16.75;6.70;;;;;;;22.83;49.18;100124.78;5035122;28;20021;-65
2020/12/01 01:12:03;;;;;;;11.50;6.93;;;;;;;22.83;49.36;100122.13;5032606;28;20037;-65
2020/12/01 01:14:29;;;;;;;12.95;6.90;;;;;;;22.84;49.46;100120.31;5047371;28;20025;-64
2020/12/01 01:16:54;;;;;;;12.88;6.60;;;;;;;22.82;49.46;100109.78;5053567;28;20083;-64
2020/12/01 01:19:19;;;;;;;13.98;6.35;;;;;;;22.83;49.34;100107.97;5045590;28;20033;-64
2020/12/01 01:21:46;;;;;;;13.88;6.25;;;;;;;22.84;49.29;100120.31;5040409;28;20029;-64
2020/12/01 01:24:19;;;;;;;10.88;6.55;;;;;;;22.82;49.63;100104.47;5034899;28;20033;-65
2020/12/01 01:26:48;;;;;;;29.42;6.78;;;;;;;22.81;49.39;100110.69;5048270;28;20029;-64
2020/12/01 01:29:14;;;;;;;11.35;6.45;;;;;;;22.80;49.47;100114.28;5046368;28;20052;-65
2020/12/01 01:31:39;;;;;;;11.65;6.63;;;;;;;22.79;49.51;100107.25;5033788;28;20025;-65
2020/12/01 01:34:05;;;;;;;11.45;6.28;;;;;;;22.79;49.45;100101.94;5037490;28;20029;-64
2020/12/01 01:36:34;;;;;;;13.85;6.90;;;;;;;22.78;49.38;100105.53;5051663;28;20044;-64
2020/12/01 01:39:00;;;;;;;10.98;6.15;;;;;;;22.76;49.47;100104.69;5046239;28;20135;-64
2020/12/01 01:41:29;;;;;;;13.05;6.55;;;;;;;22.76;49.54;100105.59;5031974;28;20523;-65
2020/12/01 01:43:54;;;;;;;12.02;6.20;;;;;;;22.77;49.32;100095.81;5038814;28;20067;-65
2020/12/01 01:46:31;;;;;;;10.35;6.15;;;;;;;22.76;49.40;100107.34;5051118;28;20029;-64
2020/12/01 01:48:57;;;;;;;10.65;6.40;;;;;;;22.75;49.39;100092.38;5047103;28;20091;-64
2020/12/01 01:51:22;;;;;;;11.52;6.47;;;;;;;22.75;49.28;100100.34;5032321;28;20475;-64
2020/12/01 01:53:49;;;;;;;12.70;6.78;;;;;;;22.73;49.25;100099.53;5033049;28;20025;-64
2020/12/01 01:56:17;;;;;;;14.32;6.70;;;;;;;22.74;49.41;100098.59;5037805;28;20095;-65
2020/12/01 01:58:42;;;;;;;11.45;6.18;;;;;;;22.73;49.31;100095.06;5026758;28;20036;-64
2020/12/01 02:01:13;;;;;;;9.98;6.15;;;;;;;22.72;49.35;100101.34;5015282;28;20076;-64
2020/12/01 02:03:40;;;;;;;11.38;6.72;;;;;;;22.73;49.24;100089.75;4999471;28;20396;-64
2020/12/01 02:06:18;;;;;;;11.05;6.20;;;;;;;22.71;49.12;100083.66;5033809;28;20030;-65
2020/12/01 02:08:46;;;;;;;11.50;6.10;;;;;;;22.72;49.29;100092.47;5050842;28;20029;-65
2020/12/01 02:11:12;;;;;;;11.07;6.28;;;;;;;22.71;49.25;100088.13;5035021;28;20120;-65
2020/12/01 02:14:08;;;;;;;10.18;6.05;;;;;;;22.71;49.43;100088.13;5045062;28;20464;-64
2020/12/01 02:16:34;;;;;;;9.65;6.07;;;;;;;22.71;49.19;100093.44;5032780;28;20045;-64
2020/12/01 02:19:00;;;;;;;10.60;5.88;;;;;;;22.70;49.40;100089.03;5031309;28;20026;-64
2020/12/01 02:21:33;;;;;;;10.88;6.13;;;;;;;22.70;49.19;100078.41;5032522;28;20033;-65
2020/12/01 02:24:03;;;;;;;9.93;6.23;;;;;;;22.70;49.25;100071.31;5031830;28;20068;-65
2020/12/01 02:26:29;;;;;;;10.98;6.05;;;;;;;22.69;49.15;100077.53;5014826;28;20022;-64
2020/12/01 02:28:54;;;;;;;10.60;6.00;;;;;;;22.70;49.15;100075.75;5041611;28;20159;-65
2020/12/01 02:31:20;;;;;;;10.98;5.85;;;;;;;22.69;49.25;100077.53;5050388;28;20031;-65
2020/12/01 02:33:46;;;;;;;9.50;5.90;;;;;;;22.68;49.26;100070.53;5026343;28;20036;-65
2020/12/01 02:36:11;;;;;;;9.85;5.95;;;;;;;22.69;49.17;100071.38;5047302;28;20029;-65
2020/12/01 02:38:36;;;;;;;12.60;6.85;;;;;;;22.68;49.22;100065.22;5033992;28;20045;-64
2020/12/01 02:41:02;;;;;;;10.38;6.15;;;;;;;22.68;49.43;100062.56;5048970;28;20029;-64
2020/12/01 02:43:27;;;;;;;10.60;6.32;;;;;;;22.68;49.39;100067.88;5039984;28;20024;-65
2020/12/01 02:45:53;;;;;;;13.35;5.68;;;;;;;22.68;49.47;100066.97;5049903;28;20021;-65
2020/12/01 02:48:18;;;;;;;10.40;6.00;;;;;;;22.68;49.22;100062.56;5032237;28;20049;-64
2020/12/01 02:50:44;;;;;;;10.77;6.32;;;;;;;22.68;49.09;100056.34;5043489;28;20037;-65
2020/12/01 02:53:09;;;;;;;11.38;6.05;;;;;;;22.68;49.16;100057.25;5052213;28;20159;-64
2020/12/01 02:55:35;;;;;;;10.73;6.53;;;;;;;22.68;49.26;100053.69;5036523;28;20036;-64
2020/12/01 02:58:00;;;;;;;9.20;5.70;;;;;;;22.67;49.32;100042.22;5034436;28;20026;-65
2020/12/01 03:00:26;;;;;;;10.32;5.88;;;;;;;22.66;49.21;100045.78;5052041;28;20086;-64
2020/12/01 03:02:51;;;;;;;9.75;6.03;;;;;;;22.67;49.40;100049.34;5034265;28;20025;-65
2020/12/01 03:05:17;;;;;;;9.00;5.63;;;;;;;22.67;49.24;100049.34;5034389;28;20041;-65
2020/12/01 03:07:42;;;;;;;9.63;5.90;;;;;;;22.67;49.11;100052.00;5038743;28;20041;-65
2020/12/01 03:10:08;;;;;;;11.25;6.10;;;;;;;22.67;49.33;100049.34;5031204;28;20030;-64
2020/12/01 03:12:33;;;;;;;9.80;5.82;;;;;;;22.67;49.29;100044.03;5032428;28;20104;-64
2020/12/01 03:15:00;;;;;;;9.82;5.72;;;;;;;22.67;49.33;100046.69;5032088;28;20092;-65
2020/12/01 03:17:25;;;;;;;10.38;5.85;;;;;;;22.67;49.33;100049.34;5036616;28;20043;-64
2020/12/01 03:19:51;;;;;;;9.90;5.85;;;;;;;22.66;49.27;100043.13;5049644;28;20033;-64
2020/12/01 03:22:16;;;;;;;10.00;6.15;;;;;;;22.66;49.28;100036.97;5055787;28;20044;-65
2020/12/01 03:24:42;;;;;;;10.90;6.18;;;;;;;22.66;49.15;100039.63;5045013;28;20025;-64
2020/12/01 03:27:07;;;;;;;11.25;5.97;;;;;;;22.65;49.33;100040.56;5037752;28;20025;-65
2020/12/01 03:29:32;;;;;;;10.88;5.82;;;;;;;22.65;49.24;100041.41;5045621;28;20095;-65
2020/12/01 03:31:58;;;;;;;10.93;5.65;;;;;;;22.65;49.05;100033.47;5039973;28;20025;-64
2020/12/01 03:34:23;;;;;;;10.43;5.47;;;;;;;22.65;49.13;100037.91;5034333;28;20036;-65
2020/12/01 03:36:49;;;;;;;9.30;5.80;;;;;;;22.64;49.19;100030.84;5035511;28;20022;-64
2020/12/01 03:39:14;;;;;;;10.65;5.75;;;;;;;22.64;49.19;100038.81;5039107;28;20041;-64
2020/12/01 03:41:40;;;;;;;9.73;5.80;;;;;;;22.65;49.29;100040.56;5054102;28;20371;-64
2020/12/01 03:44:05;;;;;;;9.32;5.57;;;;;;;22.64;49.18;100045.00;5039905;28;20037;-64
2020/12/01 03:46:31;;;;;;;10.35;5.65;;;;;;;22.64;49.12;100038.81;5035398;28;20055;-64
2020/12/01 03:48:58;;;;;;;9.95;5.85;;;;;;;22.63;49.13;100040.63;5035650;28;20025;-64
2020/12/01 03:51:27;;;;;;;9.25;5.82;;;;;;;22.64;49.33;100038.81;5035295;28;20132;-64
2020/12/01 03:53:53;;;;;;;9.43;5.93;;;;;;;22.64;49.07;100028.19;5046599;28;20029;-64
2020/12/01 03:56:18;;;;;;;9.43;5.45;;;;;;;22.64;49.13;100028.19;5053878;28;20021;-64
2020/12/01 03:58:47;;;;;;;9.70;5.53;;;;;;;22.64;49.10;100028.19;5054890;28;20024;-64
2020/12/01 04:01:12;;;;;;;10.55;5.85;;;;;;;22.63;49.29;100023.84;5043588;28;20033;-64
2020/12/01 04:03:38;;;;;;;9.90;5.90;;;;;;;22.64;49.07;100022.88;5055006;28;20024;-64
2020/12/01 04:06:03;;;;;;;9.38;5.68;;;;;;;22.61;49.20;100024.75;5050809;28;20029;-65
2020/12/01 04:08:29;;;;;;;9.60;5.60;;;;;;;22.61;49.24;100024.75;5052964;28;20029;-64
2020/12/01 04:10:54;;;;;;;9.55;5.75;;;;;;;22.61;49.18;100023.91;5039647;28;20037;-64
2020/12/01 04:13:20;;;;;;;11.02;5.90;;;;;;;22.61;49.41;100022.09;5051947;28;20047;-64
2020/12/01 04:15:45;;;;;;;8.95;5.45;;;;;;;22.61;49.07;100022.09;5055061;28;20028;-64
2020/12/01 04:18:11;;;;;;;9.50;5.55;;;;;;;22.61;49.18;100030.06;5030082;28;20460;-65
2020/12/01 04:20:36;;;;;;;10.82;5.55;;;;;;;22.60;49.08;100024.81;5038869;28;20605;-64
2020/12/01 04:23:02;;;;;;;9.35;5.85;;;;;;;22.60;49.07;100017.72;5039043;28;20034;-64
2020/12/01 04:25:27;;;;;;;8.75;5.45;;;;;;;22.59;49.14;100023.97;5034682;28;20017;-64
2020/12/01 04:27:53;;;;;;;9.68;5.57;;;;;;;22.61;49.13;100015.94;5045510;28;20029;-65
2020/12/01 04:30:18;;;;;;;9.82;5.85;;;;;;;22.59;49.19;100021.31;5018648;28;20045;-64
2020/12/01 04:32:44;;;;;;;8.90;5.57;;;;;;;22.60;49.20;100020.38;5034586;28;20052;-64
2020/12/01 04:35:10;;;;;;;9.75;5.30;;;;;;;22.60;49.13;100012.41;5033950;28;20095;-64
2020/12/01 04:37:36;;;;;;;9.43;5.80;;;;;;;22.61;49.15;100007.97;5044988;28;20028;-64
2020/12/01 04:40:02;;;;;;;9.98;5.97;;;;;;;22.61;49.21;100014.13;5040481;28;20037;-64
2020/12/01 04:42:27;;;;;;;9.68;5.93;;;;;;;22.62;49.23;100007.00;5036325;28;20063;-64
2020/12/01 04:45:08;;;;;;;9.30;5.80;;;;;;;22.63;49.09;100005.25;5018248;28;20021;-64
2020/12/01 04:47:57;;;;;;;8.57;5.13;;;;;;;22.63;48.95;100006.09;5034234;28;20039;-64
2020/12/01 04:50:45;;;;;;;9.88;5.88;;;;;;;22.65;49.05;99998.06;5021579;28;20091;-65
2020/12/01 04:53:26;;;;;;;9.75;5.57;;;;;;;22.65;48.92;99998.06;5036964;28;20104;-64
2020/12/01 04:56:09;;;;;;;9.77;5.30;;;;;;;22.65;49.12;99995.41;5033963;28;20036;-65
2020/12/01 04:58:38;;;;;;;9.73;5.43;;;;;;;22.64;49.03;99991.88;5035655;28;20033;-64
2020/12/01 05:01:15;;;;;;;10.02;6.03;;;;;;;22.65;49.10;100003.38;5054051;28;20440;-64
2020/12/01 05:03:52;;;;;;;8.40;5.10;;;;;;;22.65;49.00;99987.44;5026058;28;20030;-65
2020/12/01 05:09:03;;;;;;;8.63;5.25;;;;;;;22.66;49.17;99989.16;5047587;28;20025;-64
2020/12/01 05:11:54;;;;;;;9.82;5.47;;;;;;;22.67;49.06;99988.25;5036749;28;20116;-64
2020/12/01 05:14:21;;;;;;;10.80;5.60;;;;;;;22.66;48.89;99979.38;5034805;28;20100;-65
2020/12/01 05:17:25;;;;;;;8.48;4.88;;;;;;;22.66;48.94;99979.38;5032868;28;20025;-65
2020/12/01 05:19:51;;;;;;;8.57;5.30;;;;;;;22.66;49.18;99986.50;5045860;28;20037;-65
2020/12/01 05:22:18;;;;;;;8.65;5.40;;;;;;;22.67;49.15;99985.59;5042472;28;20376;-64
2020/12/01 05:24:47;;;;;;;9.18;5.28;;;;;;;22.66;49.03;99992.66;5049126;28;20163;-65
2020/12/01 05:27:22;;;;;;;9.98;5.72;;;;;;;22.67;49.18;99989.09;5052940;28;20029;-65
2020/12/01 05:29:55;;;;;;;11.23;5.50;;;;;;;22.66;48.89;99983.84;5052569;28;20082;-65
2020/12/01 05:32:32;;;;;;;9.05;5.30;;;;;;;22.67;49.14;99986.44;5035185;28;20029;-64
2020/12/01 05:35:10;;;;;;;9.65;5.38;;;;;;;22.67;48.96;99985.59;5041525;28;20128;-65
2020/12/01 05:37:35;;;;;;;8.32;4.82;;;;;;;22.67;49.09;99991.75;5047914;28;20029;-65
2020/12/01 05:40:08;;;;;;;8.43;4.78;;;;;;;22.68;48.90;99984.63;5038474;28;20381;-64
2020/12/01 05:42:36;;;;;;;8.68;5.22;;;;;;;22.68;49.10;99993.50;5033186;28;20025;-65
2020/12/01 05:45:01;;;;;;;9.20;5.40;;;;;;;22.68;48.97;99981.97;5021748;28;20033;-65
2020/12/01 05:47:41;;;;;;;9.07;5.45;;;;;;;22.69;48.92;99981.06;5032044;28;20033;-65
2020/12/01 05:50:09;;;;;;;9.38;5.47;;;;;;;22.68;48.88;99984.63;5038434;28;20033;-65
2020/12/01 05:53:01;;;;;;;9.95;5.40;;;;;;;22.70;49.03;99991.63;5038467;28;20470;-63
2020/12/01 05:55:26;;;;;;;11.98;5.28;;;;;;;22.70;49.13;99991.63;5033800;28;20044;-62
2020/12/01 05:58:21;;;;;;;9.93;5.32;;;;;;;22.71;49.19;99997.78;5031737;28;20109;-64
2020/12/01 06:00:47;;;;;;;11.32;5.93;;;;;;;22.71;48.98;99992.47;5036937;28;20117;-64
2020/12/01 06:04:22;;;;;;;17.17;6.05;;;;;;;22.71;49.44;100003.97;5130849;27;20357;-64
2020/12/01 06:06:53;;;;;;;22.20;5.97;;;;;;;22.72;49.35;100004.81;5103679;28;20397;-64
2020/12/01 06:09:35;;;;;;;20.27;6.50;;;;;;;22.74;49.28;100002.97;5112499;28;20023;-65
2020/12/01 06:12:22;;;;;;;16.88;6.40;;;;;;;22.73;49.53;100003.91;5112421;28;20027;-62
2020/12/01 06:14:57;;;;;;;18.98;6.50;;;;;;;22.72;49.37;100003.06;5096272;28;20032;-62
2020/12/01 06:17:32;;;;;;;19.65;6.60;;;;;;;22.74;49.29;100008.28;5091817;28;20385;-63
2020/12/01 06:21:32;;;;;;;28.38;7.28;;;;;;;22.89;48.75;100012.06;5130440;27;20924;-68
2020/12/01 06:24:03;;;;;;;20.67;7.25;;;;;;;22.95;48.53;100012.66;5130515;28;20043;-69
2020/12/01 06:26:47;;;;;;;25.40;7.38;;;;;;;22.97;48.52;100008.13;5112081;28;20106;-69
2020/12/01 06:29:43;;;;;;;15.98;6.95;;;;;;;22.99;48.63;100002.72;5130399;28;20038;-69
2020/12/01 06:32:11;;;;;;;21.48;6.95;;;;;;;22.97;48.39;100002.81;5130860;28;20052;-68
2020/12/01 06:35:14;;;;;;;19.48;7.63;;;;;;;22.97;48.56;100008.13;5130487;28;20026;-69
2020/12/01 06:38:20;;;;;;;23.35;7.53;;;;;;;22.96;48.33;100006.41;5130403;28;20023;-69
2020/12/01 06:40:49;;;;;;;20.77;7.05;;;;;;;22.94;48.27;100005.59;5109311;28;20088;-67
2020/12/01 06:43:35;;;;;;;18.30;7.57;;;;;;;22.94;48.40;100010.91;5068902;28;20040;-68
2020/12/01 06:46:01;;;;;;;15.85;7.00;;;;;;;22.92;48.36;100010.13;5076349;28;20022;-68
2020/12/01 06:48:31;;;;;;;18.77;7.00;;;;;;;22.92;48.33;100006.63;5109799;28;20024;-68
2020/12/01 06:50:58;;;;;;;17.30;6.65;;;;;;;22.91;48.56;100010.19;5075844;28;20028;-68
2020/12/01 06:53:34;;;;;;;17.33;7.18;;;;;;;22.90;48.54;100009.34;5074694;28;20466;-68
2020/12/01 06:56:20;;;;;;;13.40;6.20;;;;;;;22.89;48.31;100012.91;5074579;28;20110;-68
2020/12/01 06:58:49;;;;;;;17.15;6.22;;;;;;;22.89;48.58;100010.25;5093877;28;20444;-68
2020/12/01 07:01:17;;;;;;;15.40;6.47;;;;;;;22.87;48.50;100009.47;5074929;28;20046;-68
2020/12/01 07:03:44;;;;;;;15.98;6.90;;;;;;;22.86;48.48;100007.75;5091235;28;20148;-68
2020/12/01 07:06:16;;;;;;;15.05;6.80;;;;;;;22.86;48.60;100013.06;5074509;28;20501;-68
2020/12/01 07:08:45;;;;;;;13.35;6.53;;;;;;;22.84;48.59;100004.31;5109240;28;20039;-69
2020/12/01 07:11:13;;;;;;;13.27;6.53;;;;;;;22.84;48.63;100008.72;5091169;28;20464;-69
2020/12/01 07:13:51;;;;;;;15.48;6.68;;;;;;;22.83;48.58;100010.53;5109539;28;20024;-69
2020/12/01 07:16:37;;;;;;;14.15;6.75;;;;;;;22.82;48.59;100006.16;5075503;28;20055;-69
2020/12/01 07:19:05;;;;;;;12.75;6.55;;;;;;;22.82;48.68;100003.50;5090656;28;20032;-68
2020/12/01 07:21:56;;;;;;;12.93;6.20;;;;;;;22.81;48.67;100007.06;5087512;28;20119;-68
2020/12/01 07:24:40;;;;;;;12.85;6.65;;;;;;;22.79;48.61;100008.94;5087508;28;20035;-68
2020/12/01 07:27:41;;;;;;;16.90;6.45;;;;;;;22.79;48.86;100008.94;5071639;28;20066;-69
2020/12/01 07:30:38;;;;;;;15.60;6.65;;;;;;;22.79;48.84;99995.66;5036106;28;20394;-68
2020/12/01 07:33:12;;;;;;;11.45;5.75;;;;;;;22.77;48.68;99998.38;5070382;28;20175;-68
2020/12/01 07:35:41;;;;;;;15.30;6.38;;;;;;;22.77;48.58;100008.16;5057288;28;20052;-68
2020/12/01 07:38:09;;;;;;;12.70;6.28;;;;;;;22.76;48.93;100007.28;5075171;28;20037;-68
2020/12/01 07:40:49;;;;;;;12.25;5.93;;;;;;;22.76;48.95;100001.09;5074720;28;20032;-68
2020/12/01 07:43:18;;;;;;;15.23;6.25;;;;;;;22.75;48.71;100005.56;5073502;28;20024;-68
2020/12/01 07:45:44;;;;;;;12.13;6.40;;;;;;;22.75;48.76;100010.00;5056852;28;20020;-68
2020/12/01 07:48:15;;;;;;;12.32;6.45;;;;;;;22.75;48.77;100004.69;5074750;28;20032;-68
2020/12/01 07:50:41;;;;;;;13.00;6.88;;;;;;;22.75;48.90;99997.59;5056916;28;20036;-68
2020/12/01 07:53:12;;;;;;;12.25;6.43;;;;;;;22.75;48.78;99999.38;5073508;28;20034;-68
2020/12/01 07:55:56;;;;;;;12.73;6.05;;;;;;;22.74;48.61;99995.88;5057156;28;20024;-68
2020/12/01 07:58:26;;;;;;;11.70;5.70;;;;;;;22.74;48.79;99995.88;5074532;28;20099;-68
2020/12/01 08:01:15;;;;;;;11.43;6.45;;;;;;;22.74;48.84;99997.66;5056845;28;20124;-68
2020/12/01 08:03:40;;;;;;;12.77;5.65;;;;;;;22.74;48.81;99998.53;5066220;28;20471;-68
2020/12/01 08:06:14;;;;;;;13.20;6.15;;;;;;;22.75;48.80;100002.03;5073153;28;20029;-68
2020/12/01 08:08:44;;;;;;;13.25;6.50;;;;;;;22.74;48.69;100003.84;5056822;28;20035;-68
2020/12/01 08:11:12;;;;;;;10.98;6.13;;;;;;;22.74;48.81;100002.97;5056560;28;20028;-68
2020/12/01 08:13:38;;;;;;;11.60;6.13;;;;;;;22.74;48.59;99997.66;5074460;28;20016;-68
2020/12/01 08:16:14;;;;;;;11.02;6.13;;;;;;;22.73;48.81;100006.56;5056216;28;20524;-68
2020/12/01 08:18:43;;;;;;;10.98;5.75;;;;;;;22.73;48.60;100002.09;5072894;28;20036;-68
2020/12/01 08:21:09;;;;;;;12.77;6.70;;;;;;;22.73;48.69;100003.91;5055449;28;20072;-68
2020/12/01 08:23:34;;;;;;;10.27;5.82;;;;;;;22.72;48.86;100004.81;5052872;28;20498;-69
2020/12/01 08:26:21;;;;;;;13.10;6.57;;;;;;;22.72;48.85;100004.81;5036117;28;20495;-69
2020/12/01 08:28:48;;;;;;;9.55;5.80;;;;;;;22.71;48.71;100001.31;5053942;28;20033;-69
2020/12/01 08:31:32;;;;;;;10.10;6.00;;;;;;;22.70;48.71;99996.06;5036185;28;20025;-68
2020/12/01 08:34:12;;;;;;;9.63;5.75;;;;;;;22.70;48.65;99999.59;5036663;28;20025;-69
2020/12/01 08:36:44;;;;;;;11.13;6.10;;;;;;;22.69;48.68;99997.84;5053841;28;20029;-68
2020/12/01 08:39:28;;;;;;;11.38;6.38;;;;;;;22.69;48.57;100010.28;5052486;28;20028;-68
2020/12/01 08:42:21;;;;;;;11.88;6.28;;;;;;;22.69;48.76;100004.97;5037601;28;20028;-68
2020/12/01 08:45:02;;;;;;;10.57;5.90;;;;;;;22.68;48.64;100004.13;5035915;28;20032;-68
2020/12/01 08:47:27;;;;;;;10.90;5.68;;;;;;;22.68;48.58;100004.13;5053702;28;20032;-68
2020/12/01 08:49:55;;;;;;;11.40;6.50;;;;;;;22.67;48.59;100002.38;5035810;28;20029;-68
2020/12/01 08:52:37;;;;;;;12.30;5.70;;;;;;;22.67;48.49;99999.72;5053896;28;20021;-68
2020/12/01 08:55:27;;;;;;;10.57;6.20;;;;;;;22.68;48.50;100003.22;5053738;28;20029;-67
2020/12/01 08:58:10;;;;;;;10.38;6.40;;;;;;;22.66;48.57;100003.28;5052434;28;20028;-68
2020/12/01 09:00:36;;;;;;;12.30;6.30;;;;;;;22.67;48.47;99999.72;5052140;28;20028;-68
2020/12/01 09:03:09;;;;;;;10.63;6.13;;;;;;;22.67;48.58;99997.06;5035504;28;20471;-68
2020/12/01 09:05:36;;;;;;;9.43;5.90;;;;;;;22.67;48.75;100001.53;5052098;28;20036;-68
2020/12/01 09:08:36;;;;;;;10.57;5.72;;;;;;;22.66;48.45;99994.47;5051961;28;20025;-68
2020/12/01 09:13:55;;;;;;;10.68;5.90;;;;;;;22.66;48.53;99995.31;5044068;28;20037;-68
2020/12/01 09:16:48;;;;;;;9.23;5.38;;;;;;;22.67;48.46;99996.22;5053079;28;20071;-68
2020/12/01 09:21:59;;;;;;;9.73;5.68;;;;;;;22.65;48.42;99993.63;5075444;28;20035;-68
2020/12/01 09:24:28;;;;;;;10.38;5.70;;;;;;;22.65;48.36;99992.75;5093232;28;20028;-68
2020/12/01 09:27:07;;;;;;;13.02;5.93;;;;;;;22.65;48.57;99987.44;5075073;28;20024;-69
2020/12/01 09:29:33;;;;;;;11.23;6.13;;;;;;;22.67;48.63;99990.91;5093033;28;20051;-69
2020/12/01 09:31:59;;;;;;;10.32;5.82;;;;;;;22.65;48.47;99980.34;5058346;28;20020;-70
2020/12/01 09:34:28;;;;;;;9.43;5.30;;;;;;;22.66;48.62;99978.53;5074804;28;20024;-68
2020/12/01 09:36:58;;;;;;;12.23;6.18;;;;;;;22.65;48.57;99979.47;5093011;28;20019;-68
2020/12/01 09:39:24;;;;;;;10.23;5.85;;;;;;;22.64;48.36;99978.59;5092761;28;20111;-68
2020/12/01 09:42:00;;;;;;;10.45;5.53;;;;;;;22.64;48.50;99980.41;5074786;28;20154;-68
2020/12/01 09:47:16;;;;;;;9.55;5.75;;;;;;;22.63;48.58;99957.44;5093142;28;20088;-68
2020/12/01 09:49:41;;;;;;;10.00;6.00;;;;;;;22.63;48.38;99968.06;5092677;28;20162;-68
2020/12/01 09:52:12;;;;;;;10.32;6.03;;;;;;;22.63;48.52;99962.75;5092535;28;20028;-68
2020/12/01 09:55:35;;;;;;;10.82;6.05;;;;;;;22.61;48.47;99955.69;5074248;28;20024;-68
2020/12/01 10:05:22;;;;;;;11.15;5.72;;;;;;;22.62;48.72;99943.28;5092507;28;20091;-68
2020/12/01 10:08:05;;;;;;;9.45;5.63;;;;;;;22.61;48.43;99939.75;5061223;28;20027;-68
2020/12/01 10:13:07;;;;;;;10.48;5.85;;;;;;;22.61;48.66;99931.78;5092722;28;20032;-68
2020/12/01 10:37:01;;;;;;;10.07;5.70;;;;;;;22.61;48.46;99928.28;5029657;28;20569;-69
2020/12/01 10:39:26;;;;;;;9.75;5.82;;;;;;;22.59;48.31;99925.69;5029635;28;20034;-69
2020/12/01 10:41:52;;;;;;;10.65;6.05;;;;;;;22.59;48.33;99925.69;5058001;28;20057;-69
2020/12/01 10:44:21;;;;;;;11.02;6.57;;;;;;;22.59;48.37;99920.38;5092010;28;20035;-69
2020/12/01 10:46:51;;;;;;;10.02;5.78;;;;;;;22.60;48.54;99927.44;5092079;28;20028;-69
2020/12/01 10:49:17;;;;;;;10.55;5.80;;;;;;;22.61;48.30;99922.97;5073990;28;20017;-68
2020/12/01 10:51:47;;;;;;;10.70;5.53;;;;;;;22.58;48.31;99913.31;5073975;28;20028;-68
2020/12/01 10:54:12;;;;;;;10.23;5.57;;;;;;;22.59;48.38;99920.38;5074013;28;20103;-69
2020/12/01 10:56:38;;;;;;;9.02;5.53;;;;;;;22.59;48.47;99908.91;5091911;28;20028;-69
2020/12/01 10:59:06;;;;;;;10.18;5.70;;;;;;;22.58;48.31;99907.16;5090670;28;20027;-68
2020/12/01 11:01:35;;;;;;;9.00;5.50;;;;;;;22.59;48.27;99909.75;5091904;28;20393;-68
2020/12/01 11:04:01;;;;;;;10.27;5.93;;;;;;;22.59;48.54;99911.56;5091901;28;20020;-68
2020/12/01 11:06:26;;;;;;;10.95;5.72;;;;;;;22.58;48.49;99910.66;5057812;28;20035;-68
2020/12/01 11:08:55;;;;;;;9.30;5.57;;;;;;;22.60;48.38;99914.16;5096039;28;20016;-68
2020/12/01 11:11:20;;;;;;;10.90;6.00;;;;;;;22.59;48.49;99912.41;5077567;28;20428;-69
2020/12/01 11:13:46;;;;;;;9.55;5.80;;;;;;;22.59;48.37;99908.91;5095675;28;20028;-68
2020/12/01 11:16:11;;;;;;;8.85;5.18;;;;;;;22.59;48.33;99908.91;5095575;28;20074;-68
2020/12/01 11:18:40;;;;;;;10.30;5.90;;;;;;;22.61;48.41;99907.03;5095541;28;20035;-68
2020/12/01 11:21:06;;;;;;;8.70;5.32;;;;;;;22.58;48.45;99902.69;5095209;28;20054;-68
2020/12/01 11:23:34;;;;;;;9.05;5.40;;;;;;;22.60;48.43;99906.19;5077293;28;20028;-69
2020/12/01 11:25:59;;;;;;;9.55;5.30;;;;;;;22.59;48.41;99898.28;5095693;28;20020;-68
2020/12/01 11:28:25;;;;;;;9.57;5.70;;;;;;;22.59;48.38;99896.47;5095367;28;20402;-68
2020/12/01 11:30:51;;;;;;;9.30;5.60;;;;;;;22.58;48.45;99893.88;5095267;28;20047;-69
2020/12/01 11:33:16;;;;;;;9.45;5.57;;;;;;;22.58;48.49;99891.22;5095257;28;20355;-69
2020/12/01 11:35:42;;;;;;;9.57;5.70;;;;;;;22.58;48.34;99897.38;5095213;28;20042;-70
2020/12/01 11:38:07;;;;;;;9.30;5.78;;;;;;;22.57;48.42;99890.38;5077186;28;20073;-69
2020/12/01 11:40:32;;;;;;;9.18;5.40;;;;;;;22.58;48.36;99892.09;5095115;28;20157;-69
2020/12/01 11:42:58;;;;;;;10.27;6.15;;;;;;;22.58;48.31;99891.22;5095033;28;20031;-69
2020/12/01 11:45:23;;;;;;;8.82;5.32;;;;;;;22.58;48.55;99894.72;5095179;28;20040;-69
2020/12/01 11:47:49;;;;;;;9.20;5.60;;;;;;;22.58;48.38;99893.88;5077216;28;20028;-69
2020/12/01 11:50:14;;;;;;;8.73;5.25;;;;;;;22.58;48.28;99891.22;5094916;28;20020;-70
2020/12/01 11:52:40;;;;;;;8.95;5.55;;;;;;;22.58;48.37;99892.09;5076878;28;20032;-69
2020/12/01 11:55:05;;;;;;;9.45;5.00;;;;;;;22.58;48.37;99892.09;5094919;28;20486;-70
2020/12/01 11:57:34;;;;;;;9.05;5.65;;;;;;;22.58;48.16;99877.94;5060003;28;20028;-70
2020/12/01 11:59:59;;;;;;;9.45;5.97;;;;;;;22.58;48.25;99881.47;5094378;28;20032;-70
2020/12/01 12:02:25;;;;;;;9.20;5.35;;;;;;;22.57;48.25;99885.06;5094402;28;20035;-70
2020/12/01 12:04:50;;;;;;;9.40;5.45;;;;;;;22.57;48.26;99877.09;5076427;28;20024;-70
2020/12/01 12:07:16;;;;;;;9.73;5.88;;;;;;;22.57;48.26;99877.09;5094513;28;20024;-70
2020/12/01 12:09:44;;;;;;;10.00;5.88;;;;;;;22.58;48.16;99873.50;5076452;28;20035;-70
2020/12/01 12:12:10;;;;;;;9.05;5.65;;;;;;;22.58;48.20;99872.63;5094428;28;20116;-69
2020/12/01 12:14:38;;;;;;;9.30;5.72;;;;;;;22.58;48.31;99872.63;5094502;28;20025;-69
2020/12/01 12:17:04;;;;;;;9.18;5.50;;;;;;;22.57;48.14;99866.47;5093053;28;20632;-69
2020/12/01 12:19:29;;;;;;;9.68;5.82;;;;;;;22.57;48.13;99871.78;5094114;28;20282;-69
2020/12/01 12:21:54;;;;;;;9.50;5.68;;;;;;;22.57;48.30;99863.81;5076238;28;20089;-69